Time;durP1;ratioP1;P1;durP2;ratioP2;P2;SDS_P1;SDS_P2;PMS_P1;PMS_P2;Temp;Humidity;BMP_temperature;BMP_pressure;BME280_temperature;BME280_humidity;BME280_pressure;Samples;Min_cycle;Max_cycle;Signal;HPM_P1;HPM_P2
2022/06/25 00:01:14;;;;;;;7.67;3.53;;;;;;;;;;5010597;28;20503;-90
2022/06/25 00:03:40;;;;;;;3.53;3.23;;;;;;;;;;4973960;28;20441;-89
2022/06/25 00:06:06;;;;;;;5.27;2.80;;;;;;;;;;4982939;28;20510;-91
2022/06/25 00:08:33;;;;;;;2.73;2.63;;;;;;;;;;4992253;28;20401;-89
2022/06/25 00:10:59;;;;;;;4.57;3.07;;;;;;;;;;4974645;28;20468;-91
2022/06/25 00:13:25;;;;;;;8.33;3.30;;;;;;;;;;4978696;28;20499;-90
2022/06/25 00:15:51;;;;;;;3.70;3.60;;;;;;;;;;4981600;28;20502;-90
2022/06/25 00:18:18;;;;;;;3.13;2.87;;;;;;;;;;4971312;28;20473;-87
2022/06/25 00:20:47;;;;;;;3.20;3.10;;;;;;;;;;4972944;28;20429;-89
2022/06/25 00:23:13;;;;;;;3.23;3.23;;;;;;;;;;4990181;28;20859;-88
2022/06/25 00:25:39;;;;;;;4.37;2.77;;;;;;;;;;4972624;28;20404;-90
2022/06/25 00:28:06;;;;;;;3.90;3.60;;;;;;;;;;4991564;28;20828;-89
2022/06/25 00:30:32;;;;;;;3.67;3.37;;;;;;;;;;4990291;28;20470;-89
2022/06/25 00:33:01;;;;;;;4.13;3.80;;;;;;;;;;5002218;28;20910;-90
2022/06/25 00:35:27;;;;;;;4.20;3.40;;;;;;;;;;4973345;28;20433;-89
2022/06/25 00:37:53;;;;;;;5.63;3.33;;;;;;;;;;4983308;28;20425;-91
2022/06/25 00:40:19;;;;;;;9.10;3.40;;;;;;;;;;4989381;28;20435;-90
2022/06/25 00:42:46;;;;;;;3.33;3.13;;;;;;;;;;4974263;28;20457;-89
2022/06/25 00:45:13;;;;;;;10.40;4.00;;;;;;;;;;4980270;28;20500;-89
2022/06/25 00:47:39;;;;;;;3.73;3.50;;;;;;;;;;4988070;28;20437;-91
2022/06/25 00:50:05;;;;;;;4.30;4.00;;;;;;;;;;4992814;28;20470;-89
2022/06/25 00:52:35;;;;;;;3.50;3.30;;;;;;;;;;4988628;28;20480;-88
2022/06/25 00:55:11;;;;;;;3.10;3.00;;;;;;;;;;4993030;28;20435;-89
2022/06/25 00:57:39;;;;;;;4.23;3.87;;;;;;;;;;4986464;28;20460;-90
2022/06/25 01:00:07;;;;;;;4.97;3.57;;;;;;;;;;5010310;28;20427;-90
2022/06/25 01:02:33;;;;;;;3.60;3.13;;;;;;;;;;4973990;28;20535;-93
2022/06/25 01:05:00;;;;;;;3.67;3.60;;;;;;;;;;5027662;28;20428;-91
2022/06/25 01:07:26;;;;;;;3.40;3.20;;;;;;;;;;4977918;28;20548;-90
2022/06/25 01:09:52;;;;;;;3.70;3.50;;;;;;;;;;4978779;28;20509;-89
2022/06/25 01:12:23;;;;;;;3.63;3.40;;;;;;;;;;4976265;28;20454;-89
2022/06/25 01:15:03;;;;;;;3.93;3.80;;;;;;;;;;4983266;28;20944;-89
2022/06/25 01:17:29;;;;;;;4.10;3.80;;;;;;;;;;4980310;28;20448;-90
2022/06/25 01:19:55;;;;;;;3.90;3.50;;;;;;;;;;4977592;28;20686;-89
2022/06/25 01:22:21;;;;;;;3.43;3.43;;;;;;;;;;4994032;28;20538;-90
2022/06/25 01:24:47;;;;;;;3.80;3.70;;;;;;;;;;4982287;28;20909;-90
2022/06/25 01:27:16;;;;;;;3.43;3.40;;;;;;;;;;4994902;28;20428;-87
2022/06/25 01:29:51;;;;;;;5.07;4.00;;;;;;;;;;4983762;28;20466;-88
2022/06/25 01:32:17;;;;;;;3.53;3.53;;;;;;;;;;4990936;28;20432;-88
2022/06/25 01:34:43;;;;;;;3.17;3.07;;;;;;;;;;4987507;28;20491;-89
2022/06/25 01:37:09;;;;;;;3.97;3.87;;;;;;;;;;4982994;28;20477;-90
2022/06/25 01:39:35;;;;;;;3.60;3.40;;;;;;;;;;4980339;28;20468;-89
2022/06/25 01:42:01;;;;;;;3.70;3.57;;;;;;;;;;4980092;28;20437;-88
2022/06/25 01:44:33;;;;;;;4.77;4.30;;;;;;;;;;4984613;28;20436;-89
2022/06/25 01:46:59;;;;;;;4.73;4.50;;;;;;;;;;4975873;28;20437;-90
2022/06/25 01:49:29;;;;;;;4.67;4.20;;;;;;;;;;4980441;28;20429;-89
2022/06/25 01:51:54;;;;;;;4.40;4.27;;;;;;;;;;4997930;28;20444;-90
2022/06/25 01:54:20;;;;;;;5.00;4.70;;;;;;;;;;4983879;28;20807;-88
2022/06/25 01:56:46;;;;;;;3.80;3.60;;;;;;;;;;4980487;28;20439;-89
2022/06/25 01:59:12;;;;;;;4.20;3.90;;;;;;;;;;5008540;28;20423;-89
2022/06/25 02:01:38;;;;;;;5.00;4.60;;;;;;;;;;5000634;28;20835;-89
2022/06/25 02:04:04;;;;;;;5.63;5.23;;;;;;;;;;4991907;28;20510;-89
2022/06/25 02:06:30;;;;;;;8.93;6.37;;;;;;;;;;4983179;28;20446;-89
2022/06/25 02:08:56;;;;;;;13.30;6.60;;;;;;;;;;4973139;28;20412;-90
2022/06/25 02:11:24;;;;;;;9.73;6.40;;;;;;;;;;5006388;28;21000;-89
2022/06/25 02:13:50;;;;;;;9.30;6.70;;;;;;;;;;4988728;28;20534;-89
2022/06/25 02:16:16;;;;;;;12.60;6.57;;;;;;;;;;4986974;28;20436;-89
2022/06/25 02:18:42;;;;;;;9.30;8.20;;;;;;;;;;4989971;28;20415;-89
2022/06/25 02:21:08;;;;;;;9.30;7.50;;;;;;;;;;4984116;28;20443;-90
2022/06/25 02:23:34;;;;;;;11.20;7.73;;;;;;;;;;4999403;28;20510;-89
2022/06/25 02:25:59;;;;;;;7.93;7.13;;;;;;;;;;4978006;28;20413;-90
2022/06/25 02:28:25;;;;;;;7.03;6.30;;;;;;;;;;4981962;28;20491;-90
2022/06/25 02:30:51;;;;;;;7.33;6.27;;;;;;;;;;4975380;28;20893;-90
2022/06/25 02:33:19;;;;;;;11.07;5.73;;;;;;;;;;4984022;28;20420;-89
2022/06/25 02:35:45;;;;;;;5.50;5.20;;;;;;;;;;4986517;28;20428;-91
2022/06/25 02:38:17;;;;;;;5.50;5.00;;;;;;;;;;4976968;28;20808;-91
2022/06/25 02:40:43;;;;;;;5.70;5.30;;;;;;;;;;4976408;28;20432;-91
2022/06/25 02:43:11;;;;;;;5.37;5.17;;;;;;;;;;4992408;28;20888;-89
2022/06/25 02:45:37;;;;;;;4.57;4.30;;;;;;;;;;4994661;28;20428;-90
2022/06/25 02:48:04;;;;;;;4.80;4.50;;;;;;;;;;4978752;28;20516;-90
2022/06/25 02:50:30;;;;;;;4.20;4.20;;;;;;;;;;4988028;28;20464;-90
2022/06/25 02:52:56;;;;;;;5.00;4.70;;;;;;;;;;4977120;28;20449;-90
2022/06/25 03:00:55;;;;;;;4.43;4.30;;;;;;;;;;4985814;28;20466;-89
2022/06/25 03:03:21;;;;;;;5.00;4.60;;;;;;;;;;4987294;28;20906;-90
2022/06/25 03:05:47;;;;;;;4.47;4.23;;;;;;;;;;4997036;28;20485;-90
2022/06/25 03:08:13;;;;;;;4.30;4.20;;;;;;;;;;4982816;28;20498;-90
2022/06/25 03:10:40;;;;;;;5.10;4.70;;;;;;;;;;4983552;28;20471;-90
2022/06/25 03:13:06;;;;;;;5.60;5.27;;;;;;;;;;4976118;28;20471;-90
2022/06/25 03:15:32;;;;;;;5.10;4.70;;;;;;;;;;4974893;28;20424;-89
2022/06/25 03:17:58;;;;;;;4.70;4.50;;;;;;;;;;4981086;28;20896;-90
2022/06/25 03:20:26;;;;;;;3.83;3.83;;;;;;;;;;4977450;28;20939;-89
2022/06/25 03:22:52;;;;;;;3.80;3.73;;;;;;;;;;4992218;28;20436;-90
2022/06/25 03:25:18;;;;;;;6.00;4.80;;;;;;;;;;4969491;28;20770;-90
2022/06/25 03:27:44;;;;;;;5.83;4.77;;;;;;;;;;4976445;28;20497;-89
2022/06/25 03:30:12;;;;;;;4.63;4.33;;;;;;;;;;4983133;28;20475;-89
2022/06/25 03:32:38;;;;;;;6.23;4.93;;;;;;;;;;4970738;28;20433;-91
2022/06/25 03:35:04;;;;;;;4.37;4.03;;;;;;;;;;4978584;28;20760;-90
2022/06/25 03:37:30;;;;;;;4.50;4.40;;;;;;;;;;4985566;28;20444;-90
2022/06/25 03:39:57;;;;;;;4.63;4.43;;;;;;;;;;4982784;28;20454;-89
2022/06/25 03:42:23;;;;;;;4.60;4.40;;;;;;;;;;4985681;28;20505;-89
2022/06/25 03:44:49;;;;;;;4.20;4.10;;;;;;;;;;4983467;28;20433;-89
2022/06/25 03:47:15;;;;;;;4.43;4.30;;;;;;;;;;4982562;28;21030;-89
2022/06/25 03:49:44;;;;;;;4.63;4.43;;;;;;;;;;4984448;28;21052;-90
2022/06/25 03:52:10;;;;;;;5.10;4.90;;;;;;;;;;5005169;28;20432;-89
2022/06/25 03:54:36;;;;;;;4.17;4.07;;;;;;;;;;4986252;28;20462;-88
2022/06/25 03:57:03;;;;;;;4.83;4.53;;;;;;;;;;4978455;28;20445;-89
2022/06/25 03:59:29;;;;;;;3.80;3.60;;;;;;;;;;4982999;28;20973;-90
2022/06/25 04:01:55;;;;;;;4.90;4.50;;;;;;;;;;4991456;28;20428;-90
2022/06/25 04:04:21;;;;;;;4.40;4.30;;;;;;;;;;4973724;28;20500;-89
2022/06/25 04:06:47;;;;;;;3.97;3.93;;;;;;;;;;4988474;28;20478;-89
2022/06/25 04:09:13;;;;;;;4.20;3.90;;;;;;;;;;4994110;28;20408;-90
2022/06/25 04:11:39;;;;;;;4.47;4.13;;;;;;;;;;4996378;28;20523;-89
2022/06/25 04:14:06;;;;;;;4.47;4.27;;;;;;;;;;4983069;28;20480;-90
2022/06/25 04:16:32;;;;;;;4.70;4.30;;;;;;;;;;4974431;28;20455;-90
2022/06/25 04:19:01;;;;;;;4.30;4.20;;;;;;;;;;4979854;28;21021;-89
2022/06/25 04:21:32;;;;;;;3.90;3.80;;;;;;;;;;4982782;28;20835;-90
2022/06/25 04:23:58;;;;;;;4.23;4.10;;;;;;;;;;4974598;28;20957;-89
2022/06/25 04:26:24;;;;;;;4.43;4.13;;;;;;;;;;4972528;28;21149;-90
2022/06/25 04:29:05;;;;;;;4.00;3.80;;;;;;;;;;4978630;28;20493;-89
2022/06/25 04:31:44;;;;;;;10.30;4.50;;;;;;;;;;4966913;28;20479;-89
2022/06/25 04:34:10;;;;;;;5.60;3.73;;;;;;;;;;4983315;28;20436;-89
2022/06/25 04:36:37;;;;;;;4.50;4.20;;;;;;;;;;4980511;28;20475;-88
2022/06/25 04:39:03;;;;;;;3.10;3.10;;;;;;;;;;4993632;28;20420;-89
2022/06/25 04:41:29;;;;;;;4.50;3.60;;;;;;;;;;4989919;28;20436;-89
2022/06/25 04:43:55;;;;;;;4.27;3.43;;;;;;;;;;4991992;28;20543;-89
2022/06/25 04:46:21;;;;;;;3.80;3.80;;;;;;;;;;4992691;28;20430;-89
2022/06/25 04:48:47;;;;;;;4.13;3.70;;;;;;;;;;4977970;28;20440;-89
2022/06/25 04:51:13;;;;;;;3.20;3.20;;;;;;;;;;4984227;28;20563;-89
2022/06/25 04:53:57;;;;;;;3.90;3.57;;;;;;;;;;4981282;28;20440;-90
2022/06/25 04:56:28;;;;;;;4.00;3.70;;;;;;;;;;4967266;28;20439;-88
2022/06/25 04:58:59;;;;;;;3.80;3.67;;;;;;;;;;4985765;28;20845;-89
2022/06/25 05:01:26;;;;;;;4.00;3.90;;;;;;;;;;5003318;28;20440;-89
2022/06/25 05:03:52;;;;;;;4.20;3.90;;;;;;;;;;4988571;28;20506;-90
2022/06/25 05:06:18;;;;;;;3.60;3.40;;;;;;;;;;4976219;28;20468;-89
2022/06/25 05:08:44;;;;;;;3.53;3.43;;;;;;;;;;5001206;28;20955;-90
2022/06/25 05:11:10;;;;;;;3.80;3.50;;;;;;;;;;4992396;28;20541;-90
2022/06/25 05:13:36;;;;;;;5.60;3.90;;;;;;;;;;4973943;28;20460;-90
2022/06/25 05:16:04;;;;;;;5.80;3.30;;;;;;;;;;4983531;28;20440;-89
2022/06/25 05:18:33;;;;;;;3.87;3.47;;;;;;;;;;4975147;28;20432;-90
2022/06/25 05:20:59;;;;;;;3.27;3.07;;;;;;;;;;4982125;28;20444;-90
2022/06/25 05:23:31;;;;;;;3.30;3.03;;;;;;;;;;4996998;28;20427;-89
2022/06/25 05:26:07;;;;;;;3.57;3.37;;;;;;;;;;5016685;28;20410;-92
2022/06/25 05:28:36;;;;;;;4.77;3.30;;;;;;;;;;4996464;28;20424;-93
2022/06/25 05:31:08;;;;;;;2.83;2.83;;;;;;;;;;5017584;28;20481;-92
2022/06/25 05:33:35;;;;;;;2.97;2.87;;;;;;;;;;5015487;28;20455;-93
2022/06/25 05:36:01;;;;;;;3.80;3.50;;;;;;;;;;5013352;28;20644;-94
2022/06/25 05:38:27;;;;;;;2.83;2.83;;;;;;;;;;4998459;28;20470;-89
2022/06/25 05:40:54;;;;;;;3.00;2.90;;;;;;;;;;4998209;28;20432;-91
2022/06/25 05:43:20;;;;;;;3.17;3.07;;;;;;;;;;5015510;28;20447;-92
2022/06/25 05:45:46;;;;;;;3.47;3.37;;;;;;;;;;4999037;28;20436;-92
2022/06/25 05:48:19;;;;;;;2.90;2.90;;;;;;;;;;5004108;28;20444;-94
2022/06/25 05:50:46;;;;;;;3.77;3.47;;;;;;;;;;4996546;28;20460;-94
2022/06/25 05:53:14;;;;;;;3.33;3.33;;;;;;;;;;5001190;28;20460;-91
2022/06/25 05:55:40;;;;;;;3.17;3.00;;;;;;;;;;5015393;28;20510;-92
2022/06/25 05:58:06;;;;;;;3.70;3.50;;;;;;;;;;5035029;28;20444;-91
2022/06/25 06:00:32;;;;;;;3.93;3.63;;;;;;;;;;5009813;28;20452;-91
2022/06/25 06:02:58;;;;;;;3.50;3.23;;;;;;;;;;5000922;28;20428;-92
2022/06/25 06:05:24;;;;;;;3.03;2.90;;;;;;;;;;5021649;28;20451;-92
2022/06/25 06:07:53;;;;;;;3.23;3.03;;;;;;;;;;5020507;28;20520;-91
2022/06/25 06:10:19;;;;;;;3.47;3.30;;;;;;;;;;4995600;28;20526;-91
2022/06/25 06:12:48;;;;;;;2.77;2.77;;;;;;;;;;5005043;28;20447;-92
2022/06/25 06:15:14;;;;;;;5.73;3.60;;;;;;;;;;5010937;28;20420;-91
2022/06/25 06:17:40;;;;;;;3.03;2.83;;;;;;;;;;5020085;28;20570;-92
2022/06/25 06:20:06;;;;;;;3.70;3.50;;;;;;;;;;5011261;28;20736;-90
2022/06/25 06:22:51;;;;;;;2.73;2.73;;;;;;;;;;4998976;28;20473;-92
2022/06/25 06:25:20;;;;;;;2.60;2.60;;;;;;;;;;5007403;28;20435;-93
2022/06/25 06:27:46;;;;;;;7.43;3.37;;;;;;;;;;5000349;28;20416;-93
2022/06/25 06:30:19;;;;;;;2.60;2.60;;;;;;;;;;5013896;28;20461;-94
2022/06/25 06:32:46;;;;;;;2.60;2.60;;;;;;;;;;4995319;28;20426;-94
2022/06/25 06:35:12;;;;;;;2.87;2.67;;;;;;;;;;5012747;28;20475;-93
2022/06/25 06:37:39;;;;;;;3.37;3.17;;;;;;;;;;5014678;28;20431;-92
2022/06/25 06:40:08;;;;;;;2.60;2.60;;;;;;;;;;5014020;28;20518;-90
2022/06/25 06:42:34;;;;;;;2.40;2.30;;;;;;;;;;5025960;28;20435;-89
2022/06/25 06:45:04;;;;;;;2.70;2.60;;;;;;;;;;5018890;28;20433;-93
2022/06/25 06:47:31;;;;;;;1.97;1.97;;;;;;;;;;4989770;28;20524;-92
2022/06/25 06:49:57;;;;;;;2.80;2.60;;;;;;;;;;5015394;28;20494;-93
2022/06/25 06:52:26;;;;;;;2.50;2.50;;;;;;;;;;5009686;28;20518;-94
2022/06/25 06:54:52;;;;;;;2.60;2.50;;;;;;;;;;5012634;28;20965;-91
2022/06/25 06:57:20;;;;;;;5.20;2.20;;;;;;;;;;4995823;28;20446;-91
2022/06/25 06:59:46;;;;;;;2.53;2.53;;;;;;;;;;4991999;28;20435;-93
2022/06/25 07:02:13;;;;;;;2.90;2.80;;;;;;;;;;5007136;28;20425;-90
2022/06/25 07:04:39;;;;;;;2.70;2.60;;;;;;;;;;5009346;28;20407;-92
2022/06/25 07:07:08;;;;;;;8.13;2.20;;;;;;;;;;5011218;28;20423;-90
2022/06/25 07:09:34;;;;;;;2.30;2.13;;;;;;;;;;5008965;28;20408;-91
2022/06/25 07:12:00;;;;;;;2.37;2.20;;;;;;;;;;5027577;28;20428;-93
2022/06/25 07:14:28;;;;;;;2.73;2.30;;;;;;;;;;5004544;28;20472;-90
2022/06/25 07:16:57;;;;;;;2.63;2.43;;;;;;;;;;5002644;28;20432;-93
2022/06/25 07:19:24;;;;;;;2.30;2.20;;;;;;;;;;5005429;28;20436;-93
2022/06/25 07:22:02;;;;;;;1.57;1.57;;;;;;;;;;4967548;28;20482;-93
2022/06/25 07:24:28;;;;;;;3.50;2.23;;;;;;;;;;4965669;28;21005;-90
2022/06/25 07:27:00;;;;;;;2.50;2.30;;;;;;;;;;5007742;28;20427;-92
2022/06/25 07:29:27;;;;;;;1.77;1.67;;;;;;;;;;4987575;28;20496;-93
2022/06/25 07:31:56;;;;;;;1.70;1.70;;;;;;;;;;5005379;28;20447;-93
2022/06/25 07:34:25;;;;;;;2.07;1.97;;;;;;;;;;5008064;28;20515;-91
2022/06/25 07:36:51;;;;;;;2.93;1.80;;;;;;;;;;5007969;28;20424;-92
2022/06/25 07:39:18;;;;;;;2.97;2.77;;;;;;;;;;5010360;28;20420;-90
2022/06/25 07:41:54;;;;;;;4.10;2.27;;;;;;;;;;5011304;28;20444;-91
2022/06/25 07:44:28;;;;;;;1.90;1.80;;;;;;;;;;5003311;23;20460;-91
2022/06/25 07:46:55;;;;;;;1.90;1.60;;;;;;;;;;4954586;29;20438;-92
2022/06/25 07:51:56;;;;;;;4.53;1.83;;;;;;;;;;4994790;28;20424;-93
2022/06/25 07:52:44;;;;;;;;;;;;;;;;;;;;;
2022/06/25 07:57:55;;;;;;;2.00;1.90;;;;;;;;;;4094661;22;20467;-91
2022/06/25 08:00:43;;;;;;;1.83;1.83;;;;;;;;;;4974828;28;20444;-94
2022/06/25 08:03:33;;;;;;;1.93;1.93;;;;;;;;;;5008474;28;20436;-94
2022/06/25 08:06:02;;;;;;;2.10;2.10;;;;;;;;;;4985892;28;20426;-92
2022/06/25 08:08:41;;;;;;;;;;;;;;;;;;;;;
2022/06/25 08:14:04;;;;;;;2.30;2.30;;;;;;;;;;4940797;29;20493;-91
2022/06/25 08:16:40;;;;;;;2.00;2.00;;;;;;;;;;4923873;29;20511;-90
2022/06/25 08:19:08;;;;;;;3.30;2.00;;;;;;;;;;4929071;29;20442;-89
2022/06/25 08:21:40;;;;;;;2.00;2.00;;;;;;;;;;4960525;29;20444;-91
2022/06/25 08:24:41;;;;;;;2.20;2.00;;;;;;;;;;4946485;29;20450;-91
2022/06/25 08:27:43;;;;;;;2.07;1.97;;;;;;;;;;4936977;29;20429;-90
2022/06/25 08:30:23;;;;;;;2.20;2.10;;;;;;;;;;4944502;29;20507;-91
2022/06/25 08:32:49;;;;;;;2.73;2.27;;;;;;;;;;4931505;29;20521;-91
2022/06/25 08:35:15;;;;;;;2.30;1.90;;;;;;;;;;4953831;29;20438;-91
2022/06/25 08:37:48;;;;;;;2.30;2.10;;;;;;;;;;4950962;29;20477;-88
2022/06/25 08:40:17;;;;;;;2.27;2.17;;;;;;;;;;4956276;29;20437;-90
2022/06/25 08:42:47;;;;;;;2.00;1.93;;;;;;;;;;4934187;29;20450;-88
2022/06/25 08:45:22;;;;;;;6.07;2.10;;;;;;;;;;4950278;29;20403;-92
2022/06/25 08:47:50;;;;;;;2.23;2.20;;;;;;;;;;4916011;29;20407;-90
2022/06/25 08:50:26;;;;;;;2.27;2.10;;;;;;;;;;4926667;29;20482;-88
2022/06/25 08:53:03;;;;;;;16.93;3.20;;;;;;;;;;4962954;29;20449;-91
2022/06/25 08:55:56;;;;;;;1.87;1.87;;;;;;;;;;4961135;28;20456;-91
2022/06/25 08:58:22;;;;;;;2.23;2.13;;;;;;;;;;4944617;29;20506;-91
2022/06/25 09:00:48;;;;;;;2.53;2.53;;;;;;;;;;4945783;29;20459;-90
2022/06/25 09:06:24;;;;;;;2.43;2.33;;;;;;;;;;5002713;28;20592;-90
2022/06/25 09:09:17;;;;;;;2.23;2.20;;;;;;;;;;5002359;28;20440;-89
2022/06/25 09:12:14;;;;;;;2.43;2.33;;;;;;;;;;4962532;28;20556;-90
2022/06/25 09:14:41;;;;;;;2.20;2.00;;;;;;;;;;4974056;28;20421;-89
2022/06/25 09:20:30;;;;;;;1.80;1.70;;;;;;;;;;4997485;28;20424;-91
2022/06/25 09:23:00;;;;;;;2.93;2.60;;;;;;;;;;4963566;28;20432;-90
2022/06/25 09:25:29;;;;;;;3.63;2.53;;;;;;;;;;4993544;28;20441;-89
2022/06/25 09:31:17;;;;;;;2.63;2.63;;;;;;;;;;4983729;28;20476;-92
2022/06/25 09:48:08;;;;;;;2.73;2.57;;;;;;;;;;5074774;22;20535;-92
2022/06/25 09:50:45;;;;;;;1.97;1.87;;;;;;;;;;4991980;28;20500;-91
2022/06/25 09:53:14;;;;;;;2.53;2.33;;;;;;;;;;4977187;28;20425;-92
2022/06/25 09:56:12;;;;;;;;;;;;;;;;;;;;;
2022/06/25 09:58:35;;;;;;;2.87;1.93;;;;;;;;;;4973210;28;20458;-93
2022/06/25 10:01:09;;;;;;;2.10;2.00;;;;;;;;;;4983672;28;20439;-92
2022/06/25 10:03:36;;;;;;;2.60;2.23;;;;;;;;;;4974609;28;20541;-93
2022/06/25 10:06:03;;;;;;;1.97;1.87;;;;;;;;;;4988278;28;20490;-91
2022/06/25 10:08:39;;;;;;;2.03;1.93;;;;;;;;;;4988892;28;20421;-92
2022/06/25 10:11:07;;;;;;;3.33;2.07;;;;;;;;;;4981855;28;20488;-90
2022/06/25 10:13:47;;;;;;;1.60;1.60;;;;;;;;;;4995010;28;20480;-94
2022/06/25 10:16:18;;;;;;;1.70;1.60;;;;;;;;;;4977709;28;20421;-91
2022/06/25 10:18:50;;;;;;;2.03;1.93;;;;;;;;;;4981959;28;20503;-92
2022/06/25 10:21:21;;;;;;;1.90;1.80;;;;;;;;;;4969933;28;20454;-90
2022/06/25 10:23:52;;;;;;;3.50;2.07;;;;;;;;;;4989762;28;20479;-91
2022/06/25 10:26:21;;;;;;;3.03;1.80;;;;;;;;;;4993738;28;20580;-94
2022/06/25 10:28:48;;;;;;;2.83;1.60;;;;;;;;;;4975024;28;20421;-94
2022/06/25 10:31:28;;;;;;;1.80;1.70;;;;;;;;;;4996368;28;20484;-95
2022/06/25 10:34:02;;;;;;;2.70;2.60;;;;;;;;;;4991802;28;20449;-93
2022/06/25 10:36:48;;;;;;;3.30;1.87;;;;;;;;;;4987212;28;20461;-93
2022/06/25 10:39:24;;;;;;;2.13;1.90;;;;;;;;;;4993403;28;20448;-92
2022/06/25 10:44:54;;;;;;;2.23;2.13;;;;;;;;;;4978946;28;20452;-92
2022/06/25 10:47:39;;;;;;;2.10;1.87;;;;;;;;;;5000021;28;20479;-92
2022/06/25 10:50:25;;;;;;;1.77;1.67;;;;;;;;;;5000335;28;20449;-92
2022/06/25 10:53:06;;;;;;;2.17;2.00;;;;;;;;;;5015496;28;20420;-90
2022/06/25 10:56:07;;;;;;;2.97;2.20;;;;;;;;;;5012085;28;20471;-92
2022/06/25 10:58:47;;;;;;;1.57;1.47;;;;;;;;;;5023992;23;20432;-92
2022/06/25 11:01:23;;;;;;;1.90;1.80;;;;;;;;;;5068236;23;21427;-91
2022/06/25 11:04:03;;;;;;;2.10;1.70;;;;;;;;;;5029487;28;20432;-94
2022/06/25 11:06:34;;;;;;;1.73;1.73;;;;;;;;;;4998696;28;20520;-93
2022/06/25 11:09:08;;;;;;;2.00;1.90;;;;;;;;;;5021501;28;20455;-91
2022/06/25 11:11:35;;;;;;;1.67;1.67;;;;;;;;;;5022405;28;20468;-92
2022/06/25 11:14:02;;;;;;;1.67;1.53;;;;;;;;;;5021620;28;20436;-93
2022/06/25 11:16:46;;;;;;;2.00;2.00;;;;;;;;;;5084237;23;20563;-92
2022/06/25 11:19:16;;;;;;;2.30;1.97;;;;;;;;;;4997628;28;20547;-93
2022/06/25 11:21:45;;;;;;;1.60;1.50;;;;;;;;;;5004328;28;20440;-96
2022/06/25 11:24:23;;;;;;;2.00;1.60;;;;;;;;;;4989173;28;20436;-92
2022/06/25 11:29:51;;;;;;;1.60;1.60;;;;;;;;;;5087741;23;20526;-94
2022/06/25 11:32:31;;;;;;;3.50;1.60;;;;;;;;;;4976626;28;20453;-93
2022/06/25 11:35:16;;;;;;;1.60;1.50;;;;;;;;;;5120986;23;20514;-93
2022/06/25 11:37:42;;;;;;;3.23;1.80;;;;;;;;;;4972693;28;20446;-94
2022/06/25 11:42:50;;;;;;;1.17;1.17;;;;;;;;;;5044994;23;20848;-95
2022/06/25 11:45:20;;;;;;;2.10;2.00;;;;;;;;;;5007339;28;20516;-89
2022/06/25 11:47:53;;;;;;;1.97;1.53;;;;;;;;;;5027253;28;20466;-95
2022/06/25 11:56:04;;;;;;;3.60;1.83;;;;;;;;;;5219000;23;20526;-93
2022/06/25 11:58:32;;;;;;;1.33;1.33;;;;;;;;;;4996452;28;20448;-93
2022/06/25 12:01:01;;;;;;;5.83;5.33;;;;;;;;;;5004476;28;20472;-93
2022/06/25 12:03:47;;;;;;;2.63;1.60;;;;;;;;;;5021224;28;20487;-93
2022/06/25 12:06:14;;;;;;;2.20;2.10;;;;;;;;;;5005842;28;20476;-93
2022/06/25 12:08:40;;;;;;;1.60;1.60;;;;;;;;;;5008571;28;20440;-89
2022/06/25 12:11:09;;;;;;;2.10;2.00;;;;;;;;;;4988939;28;20580;-93
2022/06/25 12:13:40;;;;;;;3.10;2.60;;;;;;;;;;5001471;28;20739;-91
2022/06/25 12:16:06;;;;;;;2.17;2.10;;;;;;;;;;5030579;28;20427;-92
2022/06/25 12:18:34;;;;;;;2.47;2.40;;;;;;;;;;5017622;28;20422;-92
2022/06/25 12:21:01;;;;;;;2.13;2.13;;;;;;;;;;5011714;28;20470;-90
2022/06/25 12:23:27;;;;;;;2.60;2.40;;;;;;;;;;4995192;28;20444;-90
2022/06/25 12:25:53;;;;;;;2.13;2.00;;;;;;;;;;4979002;28;20442;-92
2022/06/25 12:28:39;;;;;;;2.70;2.63;;;;;;;;;;4993220;28;20432;-91
2022/06/25 12:31:12;;;;;;;4.20;2.60;;;;;;;;;;5005762;28;20481;-90
2022/06/25 12:33:38;;;;;;;3.33;2.17;;;;;;;;;;4987737;28;20476;-92
2022/06/25 12:36:15;;;;;;;1.80;1.80;;;;;;;;;;5009253;28;20429;-92
2022/06/25 12:38:41;;;;;;;2.70;2.60;;;;;;;;;;4979497;28;20433;-91
2022/06/25 12:41:07;;;;;;;2.70;2.70;;;;;;;;;;4999245;28;20426;-91
2022/06/25 12:43:49;;;;;;;2.10;2.00;;;;;;;;;;5009873;28;20475;-90
2022/06/25 12:46:19;;;;;;;2.30;2.30;;;;;;;;;;5006686;28;20902;-88
2022/06/25 12:48:57;;;;;;;1.90;1.60;;;;;;;;;;4971922;28;20458;-93
2022/06/25 12:51:28;;;;;;;2.13;2.07;;;;;;;;;;5019133;28;20486;-93
2022/06/25 12:53:56;;;;;;;2.63;2.53;;;;;;;;;;4996239;28;20425;-93
2022/06/25 12:56:29;;;;;;;2.20;2.10;;;;;;;;;;5003420;28;20453;-92
2022/06/25 12:58:58;;;;;;;1.80;1.80;;;;;;;;;;5010952;28;20462;-91
2022/06/25 13:01:27;;;;;;;2.27;2.17;;;;;;;;;;5033611;23;20581;-92
2022/06/25 13:03:56;;;;;;;8.63;8.23;;;;;;;;;;5037234;28;20535;-94
2022/06/25 13:06:25;;;;;;;1.90;1.90;;;;;;;;;;5030842;28;20451;-96
2022/06/25 13:09:03;;;;;;;2.23;2.23;;;;;;;;;;5053526;28;20426;-94
2022/06/25 13:11:39;;;;;;;2.73;2.63;;;;;;;;;;5011814;28;20481;-91
2022/06/25 13:14:05;;;;;;;2.47;2.27;;;;;;;;;;5035083;28;20466;-88
2022/06/25 13:16:33;;;;;;;2.50;2.30;;;;;;;;;;5063877;28;20450;-93
2022/06/25 13:18:59;;;;;;;2.30;2.10;;;;;;;;;;5040523;28;20499;-91
2022/06/25 13:21:27;;;;;;;2.30;2.20;;;;;;;;;;5025409;28;20449;-91
2022/06/25 13:23:53;;;;;;;2.33;2.30;;;;;;;;;;5006242;28;21168;-90
2022/06/25 13:26:22;;;;;;;1.90;1.90;;;;;;;;;;5043709;28;20438;-91
2022/06/25 13:28:48;;;;;;;2.23;2.13;;;;;;;;;;5037450;28;20415;-94
2022/06/25 13:31:14;;;;;;;7.67;2.97;;;;;;;;;;5011319;28;20465;-91
2022/06/25 13:33:40;;;;;;;4.03;2.00;;;;;;;;;;5004507;28;20431;-87
2022/06/25 13:36:06;;;;;;;2.20;2.07;;;;;;;;;;5019246;28;20438;-90
2022/06/25 13:38:45;;;;;;;2.17;2.13;;;;;;;;;;5011442;28;20749;-89
2022/06/25 13:41:14;;;;;;;4.20;2.40;;;;;;;;;;4993977;28;20759;-88
2022/06/25 13:43:43;;;;;;;4.43;2.60;;;;;;;;;;5007693;28;20484;-88
2022/06/25 13:46:09;;;;;;;2.87;2.20;;;;;;;;;;4992433;28;20412;-88
2022/06/25 13:48:44;;;;;;;2.53;2.53;;;;;;;;;;4988584;28;20494;-86
2022/06/25 13:51:10;;;;;;;3.33;3.23;;;;;;;;;;4993711;28;21080;-88
2022/06/25 13:53:36;;;;;;;2.40;2.30;;;;;;;;;;5003718;28;21007;-87
2022/06/25 13:56:02;;;;;;;2.73;2.63;;;;;;;;;;5012398;28;20400;-86
2022/06/25 13:58:29;;;;;;;2.37;2.27;;;;;;;;;;5012677;28;20427;-87
2022/06/25 14:00:57;;;;;;;3.20;3.00;;;;;;;;;;4989455;28;20478;-87
2022/06/25 14:03:23;;;;;;;3.13;2.93;;;;;;;;;;5006493;28;20474;-87
2022/06/25 14:05:49;;;;;;;3.20;3.10;;;;;;;;;;4651708;28;10000322;-87
2022/06/25 14:08:19;;;;;;;2.70;2.60;;;;;;;;;;5003029;28;20188;-87
2022/06/25 14:10:45;;;;;;;2.87;2.67;;;;;;;;;;4990727;28;20547;-86
2022/06/25 14:13:14;;;;;;;2.80;2.60;;;;;;;;;;4990235;28;20472;-87
2022/06/25 14:15:40;;;;;;;3.10;2.90;;;;;;;;;;4986772;28;20962;-86
2022/06/25 14:18:09;;;;;;;3.23;3.10;;;;;;;;;;4991598;28;20428;-89
2022/06/25 14:20:35;;;;;;;3.20;3.10;;;;;;;;;;4998168;28;20491;-88
2022/06/25 14:23:02;;;;;;;4.20;3.83;;;;;;;;;;4994726;28;20439;-88
2022/06/25 14:25:28;;;;;;;3.40;3.30;;;;;;;;;;4991120;28;20515;-88
2022/06/25 14:27:58;;;;;;;3.50;3.40;;;;;;;;;;5000934;28;20436;-88
2022/06/25 14:30:25;;;;;;;6.27;5.00;;;;;;;;;;4993628;28;20501;-88
2022/06/25 14:32:51;;;;;;;3.17;2.97;;;;;;;;;;5010630;28;20432;-88
2022/06/25 14:35:38;;;;;;;3.90;3.80;;;;;;;;;;4992248;28;20536;-88
2022/06/25 14:43:37;;;;;;;2.80;2.70;;;;;;;;;;4992383;28;20593;-88
2022/06/25 14:46:03;;;;;;;5.30;4.10;;;;;;;;;;4996365;28;20433;-88
2022/06/25 14:48:28;;;;;;;5.80;4.30;;;;;;;;;;4997322;28;20814;-86
2022/06/25 14:50:58;;;;;;;5.20;3.40;;;;;;;;;;4989663;28;20513;-88
2022/06/25 14:53:24;;;;;;;3.57;3.47;;;;;;;;;;4993679;28;20433;-89
2022/06/25 14:55:50;;;;;;;3.07;2.87;;;;;;;;;;4989437;28;20417;-88
2022/06/25 14:58:16;;;;;;;3.17;3.07;;;;;;;;;;4994886;28;20572;-88
2022/06/25 15:00:42;;;;;;;9.97;9.00;;;;;;;;;;5000847;28;20441;-86
2022/06/25 15:03:08;;;;;;;3.93;3.80;;;;;;;;;;4989506;28;20518;-87
2022/06/25 15:05:35;;;;;;;3.33;3.13;;;;;;;;;;4987412;28;20448;-87
2022/06/25 15:08:04;;;;;;;2.80;2.80;;;;;;;;;;5000921;28;20523;-88
2022/06/25 15:10:36;;;;;;;2.47;2.37;;;;;;;;;;4993727;28;20986;-90
2022/06/25 15:13:05;;;;;;;2.57;2.57;;;;;;;;;;4974436;28;20480;-86
2022/06/25 15:15:31;;;;;;;3.47;2.47;;;;;;;;;;5010762;28;20423;-87
2022/06/25 15:17:57;;;;;;;2.70;2.50;;;;;;;;;;4989304;28;20437;-88
2022/06/25 15:20:23;;;;;;;3.30;3.10;;;;;;;;;;4993386;28;20464;-88
2022/06/25 15:22:49;;;;;;;2.33;2.23;;;;;;;;;;5001776;28;20444;-88
2022/06/25 15:25:15;;;;;;;2.23;2.23;;;;;;;;;;4992169;28;20492;-88
2022/06/25 15:27:41;;;;;;;2.07;2.07;;;;;;;;;;5002000;28;20432;-87
2022/06/25 15:30:07;;;;;;;2.60;2.60;;;;;;;;;;4997957;28;20821;-86
2022/06/25 15:32:34;;;;;;;2.30;2.30;;;;;;;;;;5002692;28;20446;-87
2022/06/25 15:35:02;;;;;;;2.10;2.00;;;;;;;;;;4989011;28;20432;-87
2022/06/25 15:37:29;;;;;;;2.53;2.40;;;;;;;;;;5012017;28;20801;-88
2022/06/25 15:39:55;;;;;;;2.03;2.03;;;;;;;;;;4995824;28;20448;-87
2022/06/25 15:42:21;;;;;;;2.10;2.00;;;;;;;;;;5000149;28;20432;-88
2022/06/25 15:44:47;;;;;;;2.70;2.30;;;;;;;;;;4997958;28;20452;-87
2022/06/25 15:47:13;;;;;;;2.27;2.17;;;;;;;;;;5005641;28;20938;-88
2022/06/25 15:49:39;;;;;;;2.03;2.03;;;;;;;;;;4998140;28;20452;-87
2022/06/25 15:52:05;;;;;;;2.77;2.53;;;;;;;;;;5007709;28;20515;-89
2022/06/25 16:05:08;;;;;;;2.33;2.23;;;;;;;;;;3149787;23;20471;-91